createdAt,value
2023-04-25T00:00:26.317Z,87.34
2023-04-25T00:01:26.318Z,87.13
2023-04-25T00:02:26.379Z,87.03
2023-04-25T00:03:26.499Z,86.82
2023-04-25T00:04:26.466Z,86.82
2023-04-25T00:05:26.285Z,86.93
2023-04-25T00:06:26.243Z,87.03
2023-04-25T00:07:26.197Z,87.03
2023-04-25T00:08:26.197Z,87.24
2023-04-25T00:09:26.212Z,87.13
2023-04-25T00:10:26.179Z,87.17
2023-04-25T00:11:26.160Z,87.65
2023-04-25T00:12:26.150Z,87.65
2023-04-25T00:13:26.149Z,87.65
2023-04-25T00:14:26.151Z,87.69
2023-04-25T00:15:26.152Z,87.38
2023-04-25T00:16:26.142Z,87.38
2023-04-25T00:17:26.181Z,87.17
2023-04-25T00:18:26.122Z,87.07
2023-04-25T00:19:26.029Z,87.17
2023-04-25T00:20:26.058Z,87.27
2023-04-25T00:21:26.015Z,87.38
2023-04-25T00:22:26.088Z,87.48
2023-04-25T00:23:26.003Z,87.59
2023-04-25T00:24:26.054Z,87.48
2023-04-25T00:25:25.953Z,87.59
2023-04-25T00:26:25.954Z,87.69
2023-04-25T00:27:25.947Z,87.59
2023-04-25T00:28:26.048Z,87.59
2023-04-25T00:29:25.924Z,87.59
2023-04-25T00:30:25.929Z,87.69
2023-04-25T00:31:25.970Z,87.99
2023-04-25T00:32:25.960Z,88.10
2023-04-25T00:33:25.924Z,88.10
2023-04-25T00:34:25.851Z,88.10
2023-04-25T00:35:25.844Z,87.90
2023-04-25T00:36:25.846Z,87.63
2023-04-25T00:37:25.878Z,87.52
2023-04-25T00:38:25.844Z,87.73
2023-04-25T00:39:25.789Z,87.83
2023-04-25T00:40:25.774Z,87.83
2023-04-25T00:41:25.781Z,87.83
2023-04-25T00:42:25.778Z,87.83
2023-04-25T00:43:25.742Z,87.93
2023-04-25T00:44:25.751Z,87.83
2023-04-25T00:45:25.734Z,88.14
2023-04-25T00:46:25.791Z,87.93
2023-04-25T00:47:25.723Z,88.04
2023-04-25T00:48:25.717Z,88.14
2023-04-25T00:49:25.653Z,88.14
2023-04-25T00:50:25.669Z,87.83
2023-04-25T00:51:25.630Z,87.93
2023-04-25T00:52:25.686Z,88.04
2023-04-25T00:53:25.634Z,88.04
2023-04-25T00:54:25.622Z,87.93
2023-04-25T00:55:25.591Z,88.04
2023-04-25T00:56:25.604Z,88.14
2023-04-25T00:57:25.613Z,88.14
2023-04-25T00:58:25.576Z,88.14
2023-04-25T00:59:25.510Z,87.93
2023-04-25T01:00:25.556Z,87.83
2023-04-25T01:01:25.580Z,87.83
2023-04-25T01:02:25.630Z,87.73
2023-04-25T01:03:25.706Z,87.52
2023-04-25T01:04:25.586Z,87.73
2023-04-25T01:05:25.501Z,87.83
2023-04-25T01:06:25.477Z,88.14
2023-04-25T01:07:25.487Z,88.04
2023-04-25T01:08:25.419Z,87.93
2023-04-25T01:09:25.433Z,87.73
2023-04-25T01:10:25.381Z,87.63
2023-04-25T01:11:25.378Z,87.79
2023-04-25T01:12:25.370Z,87.69
2023-04-25T01:13:25.350Z,87.38
2023-04-25T01:14:25.372Z,87.38
2023-04-25T01:15:25.295Z,87.27
2023-04-25T01:16:25.367Z,87.27
2023-04-25T01:17:25.310Z,86.97
2023-04-25T01:18:25.280Z,87.38
2023-04-25T01:19:25.272Z,87.38
2023-04-25T01:20:25.283Z,87.27
2023-04-25T01:21:25.251Z,86.76
2023-04-25T01:22:25.246Z,87.07
2023-04-25T01:23:25.265Z,87.07
2023-04-25T01:24:25.296Z,87.17
2023-04-25T01:25:25.191Z,87.48
2023-04-25T01:26:25.250Z,87.59
2023-04-25T01:27:25.171Z,87.38
2023-04-25T01:28:25.172Z,86.97
2023-04-25T01:29:25.160Z,87.07
2023-04-25T01:30:25.145Z,87.17
2023-04-25T01:31:25.167Z,87.27
2023-04-25T01:32:25.184Z,87.52
2023-04-25T01:33:25.087Z,87.73
2023-04-25T01:34:25.113Z,87.63
2023-04-25T01:35:25.098Z,87.63
2023-04-25T01:36:25.106Z,87.73
2023-04-25T01:37:25.124Z,87.69
2023-04-25T01:38:25.056Z,87.59
2023-04-25T01:39:25.029Z,87.32
2023-04-25T01:40:25.028Z,87.32
2023-04-25T01:41:25.009Z,87.21
2023-04-25T01:42:24.997Z,87.32
2023-04-25T01:43:25.001Z,87.52
2023-04-25T01:44:24.974Z,87.73
2023-04-25T01:45:24.964Z,87.93
2023-04-25T01:46:25.059Z,87.63
2023-04-25T01:47:25.038Z,87.73
2023-04-25T01:48:24.927Z,87.63
2023-04-25T01:49:24.948Z,87.63
2023-04-25T01:50:24.899Z,87.42
2023-04-25T01:51:24.874Z,87.42
2023-04-25T01:52:24.844Z,87.63
2023-04-25T01:53:24.852Z,87.73
2023-04-25T01:54:24.818Z,87.52
2023-04-25T01:55:24.823Z,87.52
2023-04-25T01:56:24.780Z,87.32
2023-04-25T01:57:24.772Z,87.32
2023-04-25T01:58:24.783Z,87.63
2023-04-25T01:59:24.796Z,87.63
2023-04-25T02:00:24.726Z,87.32
2023-04-25T02:01:24.793Z,87.32
2023-04-25T02:02:24.879Z,87.21
2023-04-25T02:03:24.820Z,87.21
2023-04-25T02:04:24.792Z,87.21
2023-04-25T02:05:24.692Z,87.52
2023-04-25T02:06:24.666Z,87.63
2023-04-25T02:07:24.669Z,87.83
2023-04-25T02:08:24.649Z,87.73
2023-04-25T02:09:24.621Z,87.42
2023-04-25T02:10:24.641Z,87.42
2023-04-25T02:11:24.625Z,87.32
2023-04-25T02:12:24.600Z,87.42
2023-04-25T02:13:24.627Z,87.32
2023-04-25T02:14:24.591Z,87.42
2023-04-25T02:15:24.567Z,87.63
2023-04-25T02:16:24.690Z,87.52
2023-04-25T02:17:24.546Z,87.11
2023-04-25T02:18:24.523Z,86.90
2023-04-25T02:19:24.508Z,86.80
2023-04-25T02:20:24.475Z,86.80
2023-04-25T02:21:24.457Z,87.11
2023-04-25T02:22:24.434Z,87.11
2023-04-25T02:23:24.451Z,86.90
2023-04-25T02:24:24.490Z,86.80
2023-04-25T02:25:24.440Z,86.66
2023-04-25T02:26:24.421Z,86.55
2023-04-25T02:27:24.425Z,86.49
2023-04-25T02:28:24.406Z,85.87
2023-04-25T02:29:24.391Z,85.87
2023-04-25T02:30:24.399Z,85.97
2023-04-25T02:31:24.366Z,86.08
2023-04-25T02:32:24.327Z,86.18
2023-04-25T02:33:24.332Z,86.15
2023-04-25T02:34:24.304Z,86.55
2023-04-25T02:35:24.286Z,86.66
2023-04-25T02:36:24.360Z,86.55
2023-04-25T02:37:24.288Z,86.45
2023-04-25T02:38:24.283Z,85.83
2023-04-25T02:39:24.267Z,85.73
2023-04-25T02:40:24.225Z,86.04
2023-04-25T02:41:24.222Z,86.15
2023-04-25T02:42:24.219Z,85.94
2023-04-25T02:43:24.232Z,85.83
2023-04-25T02:44:24.151Z,86.24
2023-04-25T02:45:24.158Z,86.45
2023-04-25T02:46:35.769Z,86.45
2023-04-25T02:47:25.236Z,86.76
2023-04-25T02:48:24.116Z,86.76
2023-04-25T02:49:24.144Z,86.87
2023-04-25T02:50:24.107Z,86.87
2023-04-25T02:51:24.103Z,86.87
2023-04-25T02:52:24.054Z,86.45
2023-04-25T02:53:24.074Z,85.73
2023-04-25T02:54:24.062Z,85.94
2023-04-25T02:55:26.260Z,86.24
2023-04-25T02:56:24.065Z,86.15
2023-04-25T02:57:24.005Z,85.94
2023-04-25T02:58:24.038Z,85.73
2023-04-25T02:59:23.990Z,85.63
2023-04-25T03:00:23.992Z,85.73
2023-04-25T03:01:24.086Z,85.73
2023-04-25T03:02:24.026Z,85.83
2023-04-25T03:03:24.146Z,85.79
2023-04-25T03:04:24.005Z,86.21
2023-04-25T03:05:23.912Z,86.52
2023-04-25T03:06:23.886Z,86.72
2023-04-25T03:07:23.904Z,86.21
2023-04-25T03:08:23.929Z,85.79
2023-04-25T03:09:23.864Z,86.10
2023-04-25T03:10:23.862Z,86.10
2023-04-25T03:11:23.832Z,86.31
2023-04-25T03:12:23.786Z,86.52
2023-04-25T03:13:23.819Z,86.72
2023-04-25T03:14:23.830Z,86.72
2023-04-25T03:15:23.826Z,86.52
2023-04-25T03:16:23.815Z,86.41
2023-04-25T03:17:23.816Z,86.31
2023-04-25T03:18:23.760Z,86.21
2023-04-25T03:19:23.736Z,86.00
2023-04-25T03:20:23.748Z,86.10
2023-04-25T03:21:23.734Z,86.52
2023-04-25T03:22:23.681Z,86.41
2023-04-25T03:23:23.716Z,86.87
2023-04-25T03:24:23.688Z,86.97
2023-04-25T03:25:23.665Z,87.07
2023-04-25T03:26:23.633Z,87.07
2023-04-25T03:27:23.609Z,87.17
2023-04-25T03:28:23.610Z,87.17
2023-04-25T03:29:23.605Z,87.38
2023-04-25T03:30:23.581Z,87.59
2023-04-25T03:31:23.585Z,87.27
2023-04-25T03:32:23.657Z,87.17
2023-04-25T03:33:23.521Z,87.48
2023-04-25T03:34:23.509Z,87.69
2023-04-25T03:35:23.504Z,87.79
2023-04-25T03:36:23.537Z,87.99
2023-04-25T03:37:23.513Z,87.90
2023-04-25T03:38:23.501Z,87.99
2023-04-25T03:39:23.758Z,87.90
2023-04-25T03:40:23.427Z,87.99
2023-04-25T03:41:23.424Z,88.31
2023-04-25T03:42:23.439Z,88.57
2023-04-25T03:43:23.452Z,88.68
2023-04-25T03:44:23.368Z,88.57
2023-04-25T03:45:23.412Z,88.37
2023-04-25T03:46:23.426Z,88.17
2023-04-25T03:47:23.408Z,88.41
2023-04-25T03:48:23.361Z,88.41
2023-04-25T03:49:23.359Z,88.41
2023-04-25T03:50:23.303Z,88.72
2023-04-25T03:51:23.330Z,89.03
2023-04-25T03:52:23.274Z,89.13
2023-04-25T03:53:23.285Z,89.23
2023-04-25T03:54:23.252Z,89.23
2023-04-25T03:55:23.316Z,89.23
2023-04-25T03:56:23.216Z,89.34
2023-04-25T03:57:23.265Z,89.44
2023-04-25T03:58:23.292Z,89.54
2023-04-25T03:59:23.247Z,89.34
2023-04-25T04:00:23.209Z,89.34
2023-04-25T04:01:23.249Z,89.34
2023-04-25T04:02:23.292Z,89.23
2023-04-25T04:03:23.392Z,89.23
2023-04-25T04:04:23.486Z,89.34
2023-04-25T04:05:23.320Z,89.34
2023-04-25T04:06:23.154Z,89.44
2023-04-25T04:07:23.114Z,89.44
2023-04-25T04:08:23.097Z,89.44
2023-04-25T04:09:23.076Z,89.54
2023-04-25T04:10:23.044Z,89.65
2023-04-25T04:11:23.069Z,89.75
2023-04-25T04:12:23.049Z,89.85
2023-04-25T04:13:23.012Z,89.85
2023-04-25T04:14:23.080Z,89.75
2023-04-25T04:15:23.011Z,89.75
2023-04-25T04:16:22.991Z,89.85
2023-04-25T04:17:23.023Z,89.85
2023-04-25T04:18:23.012Z,89.75
2023-04-25T04:19:22.992Z,89.44
2023-04-25T04:20:22.906Z,89.23
2023-04-25T04:21:22.956Z,89.34
2023-04-25T04:22:22.918Z,89.44
2023-04-25T04:23:22.929Z,89.34
2023-04-25T04:24:22.915Z,89.44
2023-04-25T04:25:22.882Z,89.54
2023-04-25T04:26:22.853Z,89.65
2023-04-25T04:27:22.883Z,89.65
2023-04-25T04:28:22.830Z,89.75
2023-04-25T04:29:22.835Z,89.71
2023-04-25T04:30:22.817Z,89.81
2023-04-25T04:31:22.843Z,89.81
2023-04-25T04:32:22.761Z,89.71
2023-04-25T04:33:22.775Z,89.71
2023-04-25T04:34:22.790Z,89.81
2023-04-25T04:35:22.719Z,89.81
2023-04-25T04:36:22.695Z,89.81
2023-04-25T04:37:22.708Z,89.81
2023-04-25T04:38:22.706Z,90.22
2023-04-25T04:39:22.683Z,90.33
2023-04-25T04:40:22.705Z,90.33
2023-04-25T04:41:22.655Z,90.33
2023-04-25T04:42:22.633Z,90.22
2023-04-25T04:43:22.676Z,90.01
2023-04-25T04:44:22.651Z,89.91
2023-04-25T04:45:22.594Z,90.01
2023-04-25T04:46:22.680Z,90.22
2023-04-25T04:47:22.693Z,90.01
2023-04-25T04:48:22.554Z,90.12
2023-04-25T04:49:22.554Z,90.22
2023-04-25T04:50:22.571Z,90.22
2023-04-25T04:51:22.553Z,90.22
2023-04-25T04:52:22.511Z,90.12
2023-04-25T04:53:22.554Z,90.12
2023-04-25T04:54:22.540Z,90.12
2023-04-25T04:55:22.459Z,90.01
2023-04-25T04:56:22.493Z,89.81
2023-04-25T04:57:22.586Z,89.81
2023-04-25T04:58:22.421Z,89.91
2023-04-25T04:59:22.499Z,90.12
2023-04-25T05:00:22.414Z,90.01
2023-04-25T05:01:22.471Z,90.12
2023-04-25T05:02:22.483Z,90.12
2023-04-25T05:03:30.101Z,90.01
2023-04-25T05:04:22.419Z,90.12
2023-04-25T05:05:22.387Z,90.12
2023-04-25T05:06:22.350Z,90.12
2023-04-25T05:07:22.344Z,90.01
2023-04-25T05:08:22.319Z,90.06
2023-04-25T05:09:22.316Z,90.16
2023-04-25T05:10:22.318Z,90.26
2023-04-25T05:11:22.313Z,90.26
2023-04-25T05:12:23.036Z,90.26
2023-04-25T05:13:22.241Z,90.16
2023-04-25T05:14:22.244Z,90.06
2023-04-25T05:15:22.293Z,89.95
2023-04-25T05:16:22.248Z,90.16
2023-04-25T05:17:22.238Z,90.26
2023-04-25T05:18:23.708Z,90.16
2023-04-25T05:19:22.192Z,90.06
2023-04-25T05:20:22.244Z,90.06
2023-04-25T05:21:22.135Z,90.26
2023-04-25T05:22:22.115Z,90.06
2023-04-25T05:23:22.159Z,90.06
2023-04-25T05:24:22.111Z,90.26
2023-04-25T05:25:22.460Z,90.06
2023-04-25T05:26:22.092Z,90.06
2023-04-25T05:27:22.057Z,90.26
2023-04-25T05:28:22.052Z,90.26
2023-04-25T05:29:22.033Z,89.85
2023-04-25T05:30:22.038Z,89.75
2023-04-25T05:31:22.096Z,89.65
2023-04-25T05:32:22.226Z,89.54
2023-04-25T05:33:22.022Z,89.44
2023-04-25T05:34:22.027Z,89.61
2023-04-25T05:35:22.053Z,89.81
2023-04-25T05:36:21.940Z,89.81
2023-04-25T05:37:21.971Z,89.81
2023-04-25T05:38:21.897Z,89.61
2023-04-25T05:39:21.933Z,89.40
2023-04-25T05:40:21.892Z,89.40
2023-04-25T05:41:21.878Z,89.29
2023-04-25T05:42:21.904Z,89.09
2023-04-25T05:43:21.906Z,88.89
2023-04-25T05:44:21.892Z,88.43
2023-04-25T05:45:21.899Z,87.65
2023-04-25T05:46:21.873Z,87.24
2023-04-25T05:47:21.836Z,86.93
2023-04-25T05:48:21.781Z,86.82
2023-04-25T05:49:21.763Z,86.79
2023-04-25T05:50:21.750Z,86.31
2023-04-25T05:51:21.742Z,86.00
2023-04-25T05:52:21.766Z,86.10
2023-04-25T05:53:22.672Z,86.16
2023-04-25T05:54:21.754Z,85.75
2023-04-25T05:55:21.709Z,86.06
2023-04-25T05:56:21.703Z,85.79
2023-04-25T05:57:21.679Z,85.69
2023-04-25T05:58:22.014Z,85.79
2023-04-25T05:59:21.626Z,85.69
2023-04-25T06:00:21.668Z,85.69
2023-04-25T06:01:21.638Z,85.55
2023-04-25T06:02:21.761Z,85.49
2023-04-25T06:03:21.816Z,85.38
2023-04-25T06:04:21.813Z,85.24
2023-04-25T06:05:21.674Z,85.59
2023-04-25T06:06:21.590Z,85.49
2023-04-25T06:07:21.570Z,85.28
2023-04-25T06:08:21.558Z,85.75
2023-04-25T06:09:21.529Z,85.75
2023-04-25T06:10:21.511Z,85.96
2023-04-25T06:11:21.504Z,86.37
2023-04-25T06:12:21.483Z,86.68
2023-04-25T06:13:21.479Z,86.23
2023-04-25T06:14:21.506Z,86.23
2023-04-25T06:15:28.017Z,85.92
2023-04-25T06:16:22.588Z,85.82
2023-04-25T06:17:21.621Z,85.61
2023-04-25T06:18:21.431Z,85.51
2023-04-25T06:19:21.372Z,85.71
2023-04-25T06:20:21.378Z,85.82
2023-04-25T06:21:21.379Z,84.99
2023-04-25T06:22:21.369Z,85.30
2023-04-25T06:23:21.312Z,85.30
2023-04-25T06:24:21.343Z,84.95
2023-04-25T06:25:21.346Z,85.26
2023-04-25T06:26:21.356Z,85.26
2023-04-25T06:27:21.266Z,84.95
2023-04-25T06:28:21.290Z,84.95
2023-04-25T06:29:21.268Z,84.44
2023-04-25T06:30:21.243Z,84.50
2023-04-25T06:31:21.266Z,84.91
2023-04-25T06:32:21.238Z,84.61
2023-04-25T06:33:21.218Z,83.48
2023-04-25T06:34:21.241Z,82.76
2023-04-25T06:35:21.163Z,82.45
2023-04-25T06:36:21.180Z,82.65
2023-04-25T06:37:21.165Z,82.65
2023-04-25T06:38:21.157Z,82.76
2023-04-25T06:39:21.124Z,82.45
2023-04-25T06:40:21.158Z,82.24
2023-04-25T06:41:21.112Z,82.24
2023-04-25T06:42:21.111Z,82.31
2023-04-25T06:43:21.103Z,82.20
2023-04-25T06:44:21.092Z,81.42
2023-04-25T06:45:21.029Z,81.42
2023-04-25T06:46:21.087Z,81.73
2023-04-25T06:47:21.066Z,81.62
2023-04-25T06:48:21.003Z,82.04
2023-04-25T06:49:21.007Z,82.00
2023-04-25T06:50:20.978Z,82.51
2023-04-25T06:51:22.975Z,82.62
2023-04-25T06:52:20.944Z,82.41
2023-04-25T06:53:20.983Z,81.90
2023-04-25T06:54:20.959Z,82.10
2023-04-25T06:55:20.922Z,82.41
2023-04-25T06:56:20.995Z,82.20
2023-04-25T06:57:20.877Z,81.90
2023-04-25T06:58:20.898Z,81.59
2023-04-25T06:59:20.849Z,81.45
2023-04-25T07:00:20.918Z,80.93
2023-04-25T07:01:20.995Z,81.24
2023-04-25T07:02:20.888Z,81.04
2023-04-25T07:03:20.972Z,81.28
2023-04-25T07:04:21.287Z,80.77
2023-04-25T07:05:20.815Z,80.87
2023-04-25T07:06:20.830Z,81.18
2023-04-25T07:07:20.773Z,81.07
2023-04-25T07:08:20.843Z,80.77
2023-04-25T07:09:20.764Z,80.66
2023-04-25T07:10:20.758Z,80.87
2023-04-25T07:11:20.722Z,81.38
2023-04-25T07:12:20.760Z,81.86
2023-04-25T07:13:20.722Z,81.65
2023-04-25T07:14:20.696Z,80.83
2023-04-25T07:15:20.671Z,80.32
2023-04-25T07:16:20.680Z,80.21
2023-04-25T07:17:20.622Z,80.32
2023-04-25T07:18:20.677Z,80.18
2023-04-25T07:19:20.636Z,80.58
2023-04-25T07:20:20.604Z,80.38
2023-04-25T07:21:20.620Z,79.15
2023-04-25T07:22:20.608Z,79.36
2023-04-25T07:23:20.585Z,78.23
2023-04-25T07:24:20.578Z,77.55
2023-04-25T07:25:20.552Z,77.85
2023-04-25T07:26:20.556Z,78.98
2023-04-25T07:27:20.497Z,79.36
2023-04-25T07:28:20.537Z,79.46
2023-04-25T07:29:20.477Z,78.94
2023-04-25T07:30:20.509Z,78.16
2023-04-25T07:31:20.485Z,78.36
2023-04-25T07:32:20.561Z,78.27
2023-04-25T07:33:20.420Z,78.36
2023-04-25T07:34:20.430Z,78.78
2023-04-25T07:35:20.454Z,78.27
2023-04-25T07:36:20.426Z,77.65
2023-04-25T07:37:20.395Z,76.62
2023-04-25T07:38:20.365Z,76.42
2023-04-25T07:39:20.367Z,75.90
2023-04-25T07:40:20.352Z,76.21
2023-04-25T07:41:20.319Z,75.90
2023-04-25T07:42:20.343Z,75.80
2023-04-25T07:43:20.331Z,75.80
2023-04-25T07:44:20.315Z,74.84
2023-04-25T07:45:20.266Z,74.84
2023-04-25T07:46:20.309Z,74.63
2023-04-25T07:47:20.419Z,74.57
2023-04-25T07:48:20.295Z,74.32
2023-04-25T07:49:20.220Z,73.91
2023-04-25T07:50:20.219Z,74.12
2023-04-25T07:51:20.217Z,74.53
2023-04-25T07:52:20.198Z,74.94
2023-04-25T07:53:20.169Z,75.52
2023-04-25T07:54:20.274Z,74.91
2023-04-25T07:55:20.168Z,74.19
2023-04-25T07:56:20.163Z,74.19
2023-04-25T07:57:20.146Z,74.19
2023-04-25T07:58:20.118Z,73.06
2023-04-25T07:59:20.154Z,73.27
2023-04-25T08:00:20.133Z,73.57
2023-04-25T08:01:20.111Z,73.88
2023-04-25T08:02:20.131Z,71.62
2023-04-25T08:03:20.293Z,71.62
2023-04-25T08:04:20.290Z,70.94
2023-04-25T08:05:22.781Z,71.55
2023-04-25T08:06:20.155Z,71.97
2023-04-25T08:07:20.025Z,71.97
2023-04-25T08:08:19.970Z,72.38
2023-04-25T08:09:19.979Z,72.68
2023-04-25T08:10:20.058Z,73.71
2023-04-25T08:11:19.951Z,72.58
2023-04-25T08:12:21.662Z,73.10
2023-04-25T08:13:19.893Z,72.27
2023-04-25T08:14:19.932Z,72.58
2023-04-25T08:15:19.906Z,72.27
2023-04-25T08:16:20.030Z,73.30
2023-04-25T08:17:19.905Z,73.10
2023-04-25T08:18:19.892Z,73.50
2023-04-25T08:19:19.877Z,73.74
2023-04-25T08:20:19.883Z,73.54
2023-04-25T08:21:19.817Z,74.15
2023-04-25T08:22:19.833Z,74.98
2023-04-25T08:23:19.798Z,75.29
2023-04-25T08:24:19.813Z,74.77
2023-04-25T08:25:19.754Z,75.29
2023-04-25T08:26:19.779Z,76.00
2023-04-25T08:27:20.080Z,76.31
2023-04-25T08:28:19.772Z,76.42
2023-04-25T08:29:19.733Z,76.25
2023-04-25T08:30:19.738Z,76.65
2023-04-25T08:31:19.804Z,77.03
2023-04-25T08:32:19.668Z,77.34
2023-04-25T08:33:19.775Z,76.62
2023-04-25T08:34:19.658Z,77.34
2023-04-25T08:35:19.621Z,77.34
2023-04-25T08:36:31.404Z,77.03
2023-04-25T08:37:20.623Z,77.55
2023-04-25T08:38:19.647Z,76.93
2023-04-25T08:39:19.612Z,76.31
2023-04-25T08:40:19.631Z,76.68
2023-04-25T08:41:19.584Z,75.59
2023-04-25T08:42:19.622Z,75.90
2023-04-25T08:43:19.572Z,76.42
2023-04-25T08:44:19.517Z,76.10
2023-04-25T08:45:19.525Z,74.36
2023-04-25T08:46:19.506Z,73.85
2023-04-25T08:47:19.500Z,73.95
2023-04-25T08:48:19.487Z,73.85
2023-04-25T08:49:19.436Z,74.46
2023-04-25T08:50:19.507Z,74.46
2023-04-25T08:51:19.955Z,74.26
2023-04-25T08:52:19.465Z,74.46
2023-04-25T08:53:19.823Z,73.95
2023-04-25T08:54:34.357Z,73.44
2023-04-25T08:55:20.389Z,73.23
2023-04-25T08:56:19.393Z,72.92
2023-04-25T08:57:19.401Z,73.33
2023-04-25T08:58:19.369Z,73.71
2023-04-25T08:59:19.366Z,74.02
2023-04-25T09:00:19.333Z,74.29
2023-04-25T09:01:19.366Z,74.05
2023-04-25T09:02:19.375Z,73.02
2023-04-25T09:03:19.501Z,72.92
2023-04-25T09:04:19.348Z,73.13
2023-04-25T09:05:21.618Z,73.81
2023-04-25T09:06:19.237Z,73.68
2023-04-25T09:07:19.232Z,72.65
2023-04-25T09:08:19.266Z,70.60
2023-04-25T09:09:20.122Z,70.60
2023-04-25T09:10:19.185Z,70.87
2023-04-25T09:11:20.528Z,70.47
2023-04-25T09:12:19.207Z,67.08
2023-04-25T09:13:19.150Z,66.57
2023-04-25T09:14:19.161Z,67.29
2023-04-25T09:15:20.695Z,67.80
2023-04-25T09:16:19.140Z,67.90
2023-04-25T09:17:19.089Z,67.94
2023-04-25T09:18:19.126Z,67.83
2023-04-25T09:19:19.093Z,67.52
2023-04-25T09:20:19.097Z,68.01
2023-04-25T09:21:19.090Z,67.11
2023-04-25T09:22:19.103Z,67.94
2023-04-25T09:23:19.006Z,68.96
2023-04-25T09:24:19.020Z,68.86
2023-04-25T09:25:18.994Z,67.52
2023-04-25T09:26:18.990Z,68.86
2023-04-25T09:27:18.993Z,66.84
2023-04-25T09:28:18.963Z,67.66
2023-04-25T09:29:18.923Z,68.62
2023-04-25T09:30:18.986Z,69.13
2023-04-25T09:31:18.939Z,69.23
2023-04-25T09:32:19.106Z,69.02
2023-04-25T09:33:18.944Z,68.92
2023-04-25T09:34:18.898Z,69.33
2023-04-25T09:35:18.960Z,68.51
2023-04-25T09:36:18.924Z,69.13
2023-04-25T09:37:18.864Z,69.61
2023-04-25T09:38:18.875Z,69.40
2023-04-25T09:39:18.813Z,67.52
2023-04-25T09:40:18.889Z,67.22
2023-04-25T09:41:18.843Z,65.99
2023-04-25T09:42:18.813Z,65.99
2023-04-25T09:43:18.773Z,66.40
2023-04-25T09:44:18.755Z,64.35
2023-04-25T09:45:18.722Z,64.76
2023-04-25T09:46:18.794Z,64.86
2023-04-25T09:47:18.895Z,65.07
2023-04-25T09:48:18.763Z,66.19
2023-04-25T09:49:18.668Z,65.48
2023-04-25T09:50:18.728Z,65.58
2023-04-25T09:51:18.671Z,65.48
2023-04-25T09:52:18.688Z,66.60
2023-04-25T09:53:18.678Z,65.27
2023-04-25T09:54:18.662Z,64.86
2023-04-25T09:55:18.604Z,64.45
2023-04-25T09:56:18.644Z,64.97
2023-04-25T09:57:18.593Z,65.07
2023-04-25T09:58:18.684Z,65.27
2023-04-25T09:59:18.579Z,65.37
2023-04-25T10:00:18.590Z,62.61
2023-04-25T10:01:18.633Z,62.61
2023-04-25T10:02:18.621Z,61.79
2023-04-25T10:03:18.655Z,64.25
2023-04-25T10:04:18.635Z,62.30
2023-04-25T10:05:18.693Z,62.71
2023-04-25T10:06:18.792Z,63.32
2023-04-25T10:07:18.496Z,63.02
2023-04-25T10:08:18.456Z,63.12
2023-04-25T10:09:18.643Z,63.70
2023-04-25T10:10:18.463Z,64.22
2023-04-25T10:11:18.446Z,65.04
2023-04-25T10:12:18.457Z,64.94
2023-04-25T10:13:18.412Z,62.48
2023-04-25T10:14:18.412Z,62.68
2023-04-25T10:15:18.394Z,62.99
2023-04-25T10:16:18.448Z,62.48
2023-04-25T10:17:18.392Z,63.98
2023-04-25T10:18:18.331Z,63.65
2023-04-25T10:19:18.356Z,65.46
2023-04-25T10:20:18.373Z,64.74
2023-04-25T10:21:18.284Z,63.00
2023-04-25T10:22:18.265Z,62.70
2023-04-25T10:23:18.312Z,61.47
2023-04-25T10:24:18.226Z,62.62
2023-04-25T10:25:18.250Z,63.51
2023-04-25T10:26:18.244Z,61.29
2023-04-25T10:27:18.226Z,61.32
2023-04-25T10:28:18.196Z,62.14
2023-04-25T10:29:18.206Z,62.55
2023-04-25T10:30:18.142Z,64.29
2023-04-25T10:31:18.317Z,63.09
2023-04-25T10:32:18.240Z,61.76
2023-04-25T10:33:18.152Z,61.86
2023-04-25T10:34:18.171Z,63.20
2023-04-25T10:35:18.145Z,64.42
2023-04-25T10:36:18.075Z,63.29
2023-04-25T10:37:18.102Z,62.92
2023-04-25T10:38:18.072Z,63.43
2023-04-25T10:39:18.084Z,62.61
2023-04-25T10:40:18.083Z,63.22
2023-04-25T10:41:18.057Z,63.53
2023-04-25T10:42:18.042Z,65.48
2023-04-25T10:43:18.087Z,64.25
2023-04-25T10:44:18.021Z,64.35
2023-04-25T10:45:17.994Z,64.04
2023-04-25T10:46:17.984Z,64.25
2023-04-25T10:47:17.989Z,64.97
2023-04-25T10:48:17.938Z,65.86
2023-04-25T10:49:17.960Z,66.16
2023-04-25T10:50:17.924Z,65.65
2023-04-25T10:51:17.905Z,65.96
2023-04-25T10:52:17.890Z,66.27
2023-04-25T10:53:17.887Z,64.62
2023-04-25T10:54:17.841Z,64.12
2023-04-25T10:55:17.911Z,62.68
2023-04-25T10:56:17.880Z,62.99
2023-04-25T10:57:17.858Z,62.85
2023-04-25T10:58:17.818Z,62.35
2023-04-25T10:59:17.821Z,62.24
2023-04-25T11:00:17.794Z,61.45
2023-04-25T11:01:17.911Z,62.85
2023-04-25T11:02:17.884Z,62.96
2023-04-25T11:03:18.026Z,62.96
2023-04-25T11:04:18.153Z,62.96
2023-04-25T11:05:19.624Z,63.47
2023-04-25T11:06:17.714Z,63.68
2023-04-25T11:07:17.716Z,63.37
2023-04-25T11:08:17.658Z,62.96
2023-04-25T11:09:17.669Z,62.45
2023-04-25T11:10:17.648Z,61.32
2023-04-25T11:11:17.640Z,61.76
2023-04-25T11:12:17.639Z,60.12
2023-04-25T11:13:17.610Z,60.74
2023-04-25T11:14:17.659Z,61.35
2023-04-25T11:15:17.591Z,61.76
2023-04-25T11:16:23.818Z,60.84
2023-04-25T11:17:18.611Z,60.74
2023-04-25T11:18:17.602Z,61.96
2023-04-25T11:19:17.574Z,62.37
2023-04-25T11:20:18.538Z,62.24
2023-04-25T11:21:17.512Z,62.24
2023-04-25T11:22:17.496Z,61.11
2023-04-25T11:23:17.506Z,60.91
2023-04-25T11:24:17.500Z,61.22
2023-04-25T11:25:17.473Z,60.19
2023-04-25T11:26:17.428Z,60.19
2023-04-25T11:27:17.424Z,60.71
2023-04-25T11:28:17.432Z,60.88
2023-04-25T11:29:17.420Z,60.78
2023-04-25T11:30:17.384Z,59.86
2023-04-25T11:31:17.386Z,59.89
2023-04-25T11:32:17.638Z,60.17
2023-04-25T11:33:17.436Z,62.21
2023-04-25T11:34:17.496Z,62.90
2023-04-25T11:35:17.324Z,60.65
2023-04-25T11:36:17.327Z,60.65
2023-04-25T11:37:17.325Z,59.94
2023-04-25T11:38:17.281Z,60.75
2023-04-25T11:39:17.308Z,61.75
2023-04-25T11:40:17.278Z,59.50
2023-04-25T11:41:17.281Z,59.19
2023-04-25T11:42:17.248Z,59.70
2023-04-25T11:43:18.735Z,58.37
2023-04-25T11:44:17.298Z,58.78
2023-04-25T11:45:17.203Z,58.89
2023-04-25T11:46:24.860Z,58.48
2023-04-25T11:47:17.974Z,59.19
2023-04-25T11:48:19.139Z,59.06
2023-04-25T11:49:17.946Z,59.57
2023-04-25T11:50:17.180Z,60.08
2023-04-25T11:51:17.128Z,58.11
2023-04-25T11:52:17.116Z,58.22
2023-04-25T11:53:17.256Z,56.38
2023-04-25T11:54:17.082Z,55.97
2023-04-25T11:55:17.121Z,54.64
2023-04-25T11:56:17.060Z,55.46
2023-04-25T11:57:17.049Z,54.23
2023-04-25T11:58:17.036Z,55.13
2023-04-25T11:59:17.031Z,56.15
2023-04-25T12:00:18.573Z,53.90
2023-04-25T12:01:17.011Z,54.51
2023-04-25T12:02:17.040Z,53.62
2023-04-25T12:03:17.141Z,53.90
2023-04-25T12:04:17.383Z,52.80
2023-04-25T12:05:30.936Z,53.08
2023-04-25T12:06:18.183Z,53.70
2023-04-25T12:07:16.929Z,54.92
2023-04-25T12:08:16.936Z,54.21
2023-04-25T12:09:16.890Z,55.02
2023-04-25T12:10:16.893Z,54.90
2023-04-25T12:11:16.893Z,55.00
2023-04-25T12:12:16.897Z,57.04
2023-04-25T12:13:16.850Z,57.34
2023-04-25T12:14:16.841Z,53.47
2023-04-25T12:15:16.858Z,53.88
2023-04-25T12:16:16.861Z,54.82
2023-04-25T12:17:16.799Z,54.61
2023-04-25T12:18:16.862Z,54.64
2023-04-25T12:19:16.800Z,54.13
2023-04-25T12:20:16.762Z,56.58
2023-04-25T12:21:16.773Z,55.26
2023-04-25T12:22:16.741Z,54.36
2023-04-25T12:23:16.760Z,55.58
2023-04-25T12:24:16.739Z,55.79
2023-04-25T12:25:16.715Z,55.82
2023-04-25T12:26:16.883Z,55.92
2023-04-25T12:27:16.670Z,55.51
2023-04-25T12:28:16.650Z,53.98
2023-04-25T12:29:16.713Z,54.10
2023-04-25T12:30:16.622Z,55.23
2023-04-25T12:31:16.651Z,55.02
2023-04-25T12:32:16.681Z,55.23
2023-04-25T12:33:16.715Z,56.76
2023-04-25T12:34:16.565Z,56.99
2023-04-25T12:35:16.587Z,58.02
2023-04-25T12:36:16.553Z,58.63
2023-04-25T12:37:16.535Z,58.43
2023-04-25T12:38:16.512Z,59.66
2023-04-25T12:39:16.530Z,58.84
2023-04-25T12:40:16.539Z,58.73
2023-04-25T12:41:16.513Z,58.12
2023-04-25T12:42:16.479Z,58.12
2023-04-25T12:43:16.474Z,57.81
2023-04-25T12:44:16.468Z,59.17
2023-04-25T12:45:16.469Z,59.38
2023-04-25T12:46:16.445Z,59.58
2023-04-25T12:47:16.452Z,58.97
2023-04-25T12:48:16.388Z,60.71
2023-04-25T12:49:19.115Z,58.97
2023-04-25T12:50:16.367Z,58.76
2023-04-25T12:51:16.381Z,59.38
2023-04-25T12:52:16.337Z,58.97